createdAt,value
2017-08-28T00:00:51.738Z,1011.39
2017-08-28T00:01:51.929Z,1011.41
2017-08-28T00:02:51.715Z,1011.4
2017-08-28T00:03:51.703Z,1011.42
2017-08-28T00:04:51.691Z,1011.44
2017-08-28T00:05:51.679Z,1011.45
2017-08-28T00:06:51.667Z,1011.42
2017-08-28T00:07:51.655Z,1011.38
2017-08-28T00:08:51.643Z,1011.39
2017-08-28T00:09:51.630Z,1011.41
2017-08-28T00:10:51.620Z,1011.43
2017-08-28T00:11:51.607Z,1011.4
2017-08-28T00:12:51.596Z,1011.4
2017-08-28T00:13:51.583Z,1011.42
2017-08-28T00:14:51.571Z,1011.44
2017-08-28T00:15:51.560Z,1011.42
2017-08-28T00:16:51.546Z,1011.39
2017-08-28T00:17:51.535Z,1011.43
2017-08-28T00:18:51.524Z,1011.41
2017-08-28T00:19:51.514Z,1011.37
2017-08-28T00:20:51.498Z,1011.39
2017-08-28T00:21:51.488Z,1011.36
2017-08-28T00:22:51.477Z,1011.38
2017-08-28T00:23:51.463Z,1011.38
2017-08-28T00:24:51.450Z,1011.39
2017-08-28T00:25:51.440Z,1011.4
2017-08-28T00:26:51.426Z,1011.41
2017-08-28T00:27:51.416Z,1011.44
2017-08-28T00:28:51.403Z,1011.42
2017-08-28T00:29:51.390Z,1011.4
2017-08-28T00:30:51.383Z,1011.45
2017-08-28T00:31:51.366Z,1011.41
2017-08-28T00:32:51.358Z,1011.41
2017-08-28T00:33:51.341Z,1011.4
2017-08-28T00:34:51.332Z,1011.42
2017-08-28T00:35:51.319Z,1011.43
2017-08-28T00:36:51.305Z,1011.43
2017-08-28T00:37:51.293Z,1011.44
2017-08-28T00:38:51.288Z,1011.42
2017-08-28T00:39:51.273Z,1011.45
2017-08-28T00:40:51.265Z,1011.47
2017-08-28T00:41:51.260Z,1011.45
2017-08-28T00:42:51.232Z,1011.48
2017-08-28T00:43:51.221Z,1011.48
2017-08-28T00:44:51.209Z,1011.48
2017-08-28T00:45:51.195Z,1011.47
2017-08-28T00:46:51.183Z,1011.49
2017-08-28T00:47:51.171Z,1011.46
2017-08-28T00:48:51.163Z,1011.49
2017-08-28T00:49:51.147Z,1011.48
2017-08-28T00:50:51.134Z,1011.48
2017-08-28T00:51:51.121Z,1011.51
2017-08-28T00:52:51.110Z,1011.51
2017-08-28T00:53:51.096Z,1011.51
2017-08-28T00:54:51.084Z,1011.53
2017-08-28T00:55:51.073Z,1011.58
2017-08-28T00:56:51.060Z,1011.47
2017-08-28T00:57:51.047Z,1011.53
2017-08-28T00:58:51.036Z,1011.52
2017-08-28T00:59:51.024Z,1011.52
2017-08-28T01:00:51.010Z,1011.52
2017-08-28T01:01:50.998Z,1011.53
2017-08-28T01:02:50.985Z,1011.51
2017-08-28T01:03:50.976Z,1011.54
2017-08-28T01:04:50.963Z,1011.5
2017-08-28T01:05:50.949Z,1011.49
2017-08-28T01:06:50.936Z,1011.53
2017-08-28T01:07:50.923Z,1011.49
2017-08-28T01:08:50.910Z,1011.5
2017-08-28T01:09:50.899Z,1011.45
2017-08-28T01:10:50.887Z,1011.45
2017-08-28T01:11:50.875Z,1011.43
2017-08-28T01:12:50.862Z,1011.42
2017-08-28T01:13:50.850Z,1011.38
2017-08-28T01:14:50.841Z,1011.32
2017-08-28T01:15:50.825Z,1011.35
2017-08-28T01:16:50.812Z,1011.36
2017-08-28T01:17:50.802Z,1011.35
2017-08-28T01:18:50.790Z,1011.32
2017-08-28T01:19:50.774Z,1011.32
2017-08-28T01:20:50.762Z,1011.3
2017-08-28T01:21:50.751Z,1011.24
2017-08-28T01:22:50.736Z,1011.24
2017-08-28T01:23:50.725Z,1011.24
2017-08-28T01:24:50.711Z,1011.16
2017-08-28T01:25:50.702Z,1011.19
2017-08-28T01:26:50.687Z,1011.2
2017-08-28T01:27:50.675Z,1011.21
2017-08-28T01:28:50.662Z,1011.22
2017-08-28T01:29:50.649Z,1011.2
2017-08-28T01:30:50.637Z,1011.22
2017-08-28T01:31:50.624Z,1011.2
2017-08-28T01:32:50.612Z,1011.16
2017-08-28T01:33:50.598Z,1011.16
2017-08-28T01:34:50.587Z,1011.13
2017-08-28T01:35:50.574Z,1011.13
2017-08-28T01:36:50.564Z,1011.13
2017-08-28T01:37:50.551Z,1011.15
2017-08-28T01:38:50.541Z,1011.12
2017-08-28T01:39:50.525Z,1011.11
2017-08-28T01:40:50.512Z,1011.1
2017-08-28T01:41:50.500Z,1011.09
2017-08-28T01:42:50.489Z,1011.1
2017-08-28T01:43:50.476Z,1011.1
2017-08-28T01:44:50.462Z,1011.09
2017-08-28T01:45:50.449Z,1011.11
2017-08-28T01:46:50.435Z,1011.15
2017-08-28T01:47:50.424Z,1011.14
2017-08-28T01:48:50.413Z,1011.13
2017-08-28T01:49:50.398Z,1011.11
2017-08-28T01:50:50.386Z,1011.09
2017-08-28T01:51:50.373Z,1011.11
2017-08-28T01:52:50.362Z,1011.1
2017-08-28T01:53:50.350Z,1011.07
2017-08-28T01:54:50.337Z,1011.07
2017-08-28T01:55:50.323Z,1011.1
2017-08-28T01:56:50.313Z,1011.06
2017-08-28T01:57:50.299Z,1011.06
2017-08-28T01:58:50.287Z,1011.06
2017-08-28T01:59:50.273Z,1011.03
2017-08-28T02:00:50.261Z,1011.05
2017-08-28T02:01:50.252Z,1011.01
2017-08-28T02:02:50.439Z,1011
2017-08-28T02:03:50.261Z,1010.97
2017-08-28T02:04:50.212Z,1010.96
2017-08-28T02:05:50.198Z,1010.97
2017-08-28T02:06:50.186Z,1011
2017-08-28T02:07:50.175Z,1010.94
2017-08-28T02:08:50.163Z,1010.97
2017-08-28T02:09:50.149Z,1010.94
2017-08-28T02:10:50.137Z,1010.92
2017-08-28T02:11:50.125Z,1010.93
2017-08-28T02:12:50.112Z,1010.9
2017-08-28T02:13:50.099Z,1010.93
2017-08-28T02:14:50.087Z,1010.91
2017-08-28T02:15:50.075Z,1010.92
2017-08-28T02:16:50.064Z,1010.91
2017-08-28T02:17:50.050Z,1010.92
2017-08-28T02:18:50.036Z,1010.88
2017-08-28T02:19:50.025Z,1010.92
2017-08-28T02:20:50.011Z,1010.9
2017-08-28T02:21:50.001Z,1010.91
2017-08-28T02:22:49.986Z,1010.9
2017-08-28T02:23:49.975Z,1010.93
2017-08-28T02:24:49.962Z,1010.92
2017-08-28T02:25:49.951Z,1010.91
2017-08-28T02:26:49.938Z,1010.91
2017-08-28T02:27:49.926Z,1010.9
2017-08-28T02:28:49.912Z,1010.89
2017-08-28T02:29:49.899Z,1010.9
2017-08-28T02:30:49.887Z,1010.93
2017-08-28T02:31:49.874Z,1010.93
2017-08-28T02:32:49.864Z,1010.93
2017-08-28T02:33:49.848Z,1010.95
2017-08-28T02:34:49.837Z,1010.9
2017-08-28T02:35:49.823Z,1010.91
2017-08-28T02:36:49.812Z,1010.85
2017-08-28T02:37:49.799Z,1010.92
2017-08-28T02:38:49.786Z,1010.87
2017-08-28T02:39:49.779Z,1010.86
2017-08-28T02:40:49.761Z,1010.86
2017-08-28T02:41:49.750Z,1010.87
2017-08-28T02:42:49.739Z,1010.86
2017-08-28T02:43:49.721Z,1010.88
2017-08-28T02:44:49.710Z,1010.89
2017-08-28T02:45:49.702Z,1010.85
2017-08-28T02:46:49.685Z,1010.86
2017-08-28T02:47:49.680Z,1010.88
2017-08-28T02:48:49.659Z,1010.86
2017-08-28T02:49:49.649Z,1010.84
2017-08-28T02:50:49.645Z,1010.83
2017-08-28T02:51:49.621Z,1010.84
2017-08-28T02:52:49.609Z,1010.8
2017-08-28T02:53:49.595Z,1010.82
2017-08-28T02:54:49.583Z,1010.86
2017-08-28T02:55:49.570Z,1010.82
2017-08-28T02:56:49.559Z,1010.83
2017-08-28T02:57:49.546Z,1010.82
2017-08-28T02:58:49.531Z,1010.87
2017-08-28T02:59:49.520Z,1010.83
2017-08-28T03:00:49.508Z,1010.86
2017-08-28T03:01:49.495Z,1010.89
2017-08-28T03:02:49.481Z,1010.91
2017-08-28T03:03:49.470Z,1010.9
2017-08-28T03:04:49.456Z,1010.89
2017-08-28T03:05:49.444Z,1010.92
2017-08-28T03:06:49.430Z,1010.91
2017-08-28T03:07:49.417Z,1010.9
2017-08-28T03:08:49.407Z,1010.92
2017-08-28T03:09:49.393Z,1010.91
2017-08-28T03:10:49.383Z,1010.93
2017-08-28T03:11:49.368Z,1010.93
2017-08-28T03:12:49.355Z,1010.94
2017-08-28T03:13:49.343Z,1010.93
2017-08-28T03:14:49.331Z,1010.97
2017-08-28T03:15:49.315Z,1010.94
2017-08-28T03:16:49.304Z,1010.98
2017-08-28T03:17:49.291Z,1010.97
2017-08-28T03:18:49.278Z,1010.95
2017-08-28T03:19:49.268Z,1010.93
2017-08-28T03:20:49.252Z,1010.95
2017-08-28T03:21:49.239Z,1010.92
2017-08-28T03:22:49.226Z,1010.92
2017-08-28T03:23:49.213Z,1010.93
2017-08-28T03:24:49.202Z,1011.01
2017-08-28T03:25:49.188Z,1010.94
2017-08-28T03:26:49.174Z,1010.92
2017-08-28T03:27:49.162Z,1010.95
2017-08-28T03:28:49.150Z,1010.92
2017-08-28T03:29:49.137Z,1010.89
2017-08-28T03:30:49.125Z,1010.88
2017-08-28T03:31:49.111Z,1010.87
2017-08-28T03:32:49.102Z,1010.87
2017-08-28T03:33:49.091Z,1010.87
2017-08-28T03:34:49.073Z,1010.84
2017-08-28T03:35:49.059Z,1010.84
2017-08-28T03:36:49.049Z,1010.84
2017-08-28T03:37:49.038Z,1010.87
2017-08-28T03:38:49.043Z,1010.89
2017-08-28T03:39:49.011Z,1010.92
2017-08-28T03:40:48.998Z,1010.95
2017-08-28T03:41:48.983Z,1010.98
2017-08-28T03:42:48.970Z,1010.96
2017-08-28T03:43:48.957Z,1010.93
2017-08-28T03:44:48.944Z,1010.94
2017-08-28T03:45:48.934Z,1010.91
2017-08-28T03:46:48.920Z,1010.92
2017-08-28T03:47:48.907Z,1010.91
2017-08-28T03:48:48.894Z,1010.9
2017-08-28T03:49:48.881Z,1010.93
2017-08-28T03:50:48.868Z,1010.92
2017-08-28T03:51:48.856Z,1010.91
2017-08-28T03:52:48.848Z,1010.95
2017-08-28T03:53:48.832Z,1010.9
2017-08-28T03:54:48.820Z,1010.92
2017-08-28T03:55:48.804Z,1010.91
2017-08-28T03:56:48.792Z,1010.92
2017-08-28T03:57:48.779Z,1010.92
2017-08-28T03:58:48.770Z,1010.93
2017-08-28T03:59:48.752Z,1010.96
2017-08-28T04:00:48.765Z,1010.89
2017-08-28T04:01:48.727Z,1010.92
2017-08-28T04:02:48.918Z,1010.94
2017-08-28T04:03:48.700Z,1010.93
2017-08-28T04:04:48.691Z,1010.92
2017-08-28T04:05:48.676Z,1010.94
2017-08-28T04:06:48.661Z,1010.92
2017-08-28T04:07:48.648Z,1010.9
2017-08-28T04:08:48.637Z,1010.91
2017-08-28T04:09:48.624Z,1010.9
2017-08-28T04:10:48.612Z,1010.9
2017-08-28T04:11:48.597Z,1010.9
2017-08-28T04:12:48.585Z,1010.89
2017-08-28T04:13:48.578Z,1010.88
2017-08-28T04:14:48.558Z,1010.91
2017-08-28T04:15:48.546Z,1010.9
2017-08-28T04:16:48.534Z,1010.9
2017-08-28T04:17:48.564Z,1010.89
2017-08-28T04:18:48.507Z,1010.95
2017-08-28T04:19:48.496Z,1010.94
2017-08-28T04:20:48.485Z,1010.92
2017-08-28T04:21:48.469Z,1010.9
2017-08-28T04:22:48.459Z,1010.94
2017-08-28T04:23:48.443Z,1010.94
2017-08-28T04:24:48.431Z,1010.94
2017-08-28T04:25:48.420Z,1010.98
2017-08-28T04:26:48.405Z,1010.98
2017-08-28T04:27:48.394Z,1011
2017-08-28T04:28:48.379Z,1011
2017-08-28T04:29:48.366Z,1011.02
2017-08-28T04:30:48.354Z,1011.05
2017-08-28T04:31:48.339Z,1011.07
2017-08-28T04:32:48.325Z,1011.04
2017-08-28T04:33:48.314Z,1011.01
2017-08-28T04:34:48.303Z,1011.02
2017-08-28T04:35:48.287Z,1010.99
2017-08-28T04:36:48.275Z,1011.03
2017-08-28T04:37:48.262Z,1011.01
2017-08-28T04:38:48.250Z,1011.04
2017-08-28T04:39:48.236Z,1010.99
2017-08-28T04:40:48.222Z,1011
2017-08-28T04:41:48.212Z,1010.97
2017-08-28T04:42:48.197Z,1010.95
2017-08-28T04:43:48.185Z,1010.93
2017-08-28T04:44:48.171Z,1010.99
2017-08-28T04:45:48.158Z,1010.96
2017-08-28T04:46:48.144Z,1010.99
2017-08-28T04:47:48.132Z,1011
2017-08-28T04:48:48.118Z,1011.03
2017-08-28T04:49:48.106Z,1011
2017-08-28T04:50:48.094Z,1011
2017-08-28T04:51:48.083Z,1011
2017-08-28T04:52:48.066Z,1011.03
2017-08-28T04:53:48.055Z,1011
2017-08-28T04:54:48.041Z,1011.06
2017-08-28T04:55:48.028Z,1011.01
2017-08-28T04:56:48.015Z,1011.02
2017-08-28T04:57:48.003Z,1011.04
2017-08-28T04:58:47.989Z,1011.06
2017-08-28T04:59:47.975Z,1011.05
2017-08-28T05:00:47.964Z,1011.08
2017-08-28T05:01:47.949Z,1011.09
2017-08-28T05:02:47.938Z,1011.06
2017-08-28T05:03:47.925Z,1011.06
2017-08-28T05:04:47.915Z,1011.07
2017-08-28T05:05:47.897Z,1011.08
2017-08-28T05:06:47.885Z,1011.06
2017-08-28T05:07:47.875Z,1011.09
2017-08-28T05:08:47.859Z,1011.1
2017-08-28T05:09:47.847Z,1011.05
2017-08-28T05:10:47.833Z,1011.05
2017-08-28T05:11:47.827Z,1011.05
2017-08-28T05:12:47.808Z,1011.03
2017-08-28T05:13:47.796Z,1011.03
2017-08-28T05:14:47.782Z,1011.07
2017-08-28T05:15:47.771Z,1011.11
2017-08-28T05:16:47.758Z,1011.13
2017-08-28T05:17:47.746Z,1011.15
2017-08-28T05:18:47.731Z,1011.15
2017-08-28T05:19:47.721Z,1011.13
2017-08-28T05:20:47.707Z,1011.14
2017-08-28T05:21:47.693Z,1011.16
2017-08-28T05:22:47.681Z,1011.18
2017-08-28T05:23:47.667Z,1011.12
2017-08-28T05:24:47.655Z,1011.17
2017-08-28T05:25:47.644Z,1011.17
2017-08-28T05:26:47.633Z,1011.12
2017-08-28T05:27:47.617Z,1011.1
2017-08-28T05:28:47.605Z,1011.2
2017-08-28T05:29:47.591Z,1011.16
2017-08-28T05:30:47.578Z,1011.12
2017-08-28T05:31:47.566Z,1011.12
2017-08-28T05:32:47.553Z,1011.09
2017-08-28T05:33:47.541Z,1011.12
2017-08-28T05:34:47.526Z,1011.15
2017-08-28T05:35:47.515Z,1011.13
2017-08-28T05:36:47.501Z,1011.14
2017-08-28T05:37:47.491Z,1011.15
2017-08-28T05:38:47.477Z,1011.11
2017-08-28T05:39:47.466Z,1011.15
2017-08-28T05:40:47.452Z,1011.14
2017-08-28T05:41:47.438Z,1011.17
2017-08-28T05:42:47.425Z,1011.16
2017-08-28T05:43:47.413Z,1011.19
2017-08-28T05:44:47.403Z,1011.2
2017-08-28T05:45:47.388Z,1011.19
2017-08-28T05:46:47.378Z,1011.26
2017-08-28T05:47:47.363Z,1011.25
2017-08-28T05:48:47.351Z,1011.27
2017-08-28T05:49:47.338Z,1011.25
2017-08-28T05:50:47.325Z,1011.25
2017-08-28T05:51:47.314Z,1011.26
2017-08-28T05:52:47.300Z,1011.27
2017-08-28T05:53:47.287Z,1011.26
2017-08-28T05:54:47.274Z,1011.29
2017-08-28T05:55:47.263Z,1011.28
2017-08-28T05:56:47.250Z,1011.3
2017-08-28T05:57:47.238Z,1011.26
2017-08-28T05:58:47.230Z,1011.26
2017-08-28T05:59:47.216Z,1011.27
2017-08-28T06:00:47.202Z,1011.23
2017-08-28T06:01:47.189Z,1011.22
2017-08-28T06:02:47.379Z,1011.18
2017-08-28T06:03:47.167Z,1011.16
2017-08-28T06:04:47.151Z,1011.18
2017-08-28T06:05:47.139Z,1011.22
2017-08-28T06:06:47.132Z,1011.15
2017-08-28T06:07:47.123Z,1011.16
2017-08-28T06:08:47.105Z,1011.2
2017-08-28T06:09:47.142Z,1011.16
2017-08-28T06:10:47.080Z,1011.15
2017-08-28T06:11:47.067Z,1011.2
2017-08-28T06:12:47.054Z,1011.19
2017-08-28T06:13:47.042Z,1011.2
2017-08-28T06:14:47.028Z,1011.19
2017-08-28T06:15:47.017Z,1011.19
2017-08-28T06:16:47.004Z,1011.18
2017-08-28T06:17:46.992Z,1011.14
2017-08-28T06:18:46.983Z,1011.15
2017-08-28T06:19:46.968Z,1011.13
2017-08-28T06:20:46.958Z,1011.12
2017-08-28T06:21:46.946Z,1011.11
2017-08-28T06:22:46.934Z,1011.12
2017-08-28T06:23:46.923Z,1011.12
2017-08-28T06:24:46.909Z,1011.07
2017-08-28T06:25:46.896Z,1011.1
2017-08-28T06:26:46.883Z,1011.12
2017-08-28T06:27:46.873Z,1011.12
2017-08-28T06:28:46.861Z,1011.13
2017-08-28T06:29:46.847Z,1011.12
2017-08-28T06:30:46.835Z,1011.12
2017-08-28T06:31:46.825Z,1011.1
2017-08-28T06:32:46.813Z,1011.1
2017-08-28T06:33:46.800Z,1011.08
2017-08-28T06:34:46.789Z,1011.07
2017-08-28T06:35:46.778Z,1011.06
2017-08-28T06:36:46.764Z,1011.06
2017-08-28T06:37:46.752Z,1011.07
2017-08-28T06:38:46.742Z,1011.08
2017-08-28T06:39:46.731Z,1011.03
2017-08-28T06:40:46.717Z,1011.07
2017-08-28T06:41:46.706Z,1011.12
2017-08-28T06:42:46.693Z,1011.07
2017-08-28T06:43:46.683Z,1011.08
2017-08-28T06:44:46.671Z,1011.08
2017-08-28T06:45:46.660Z,1011.1
2017-08-28T06:46:46.648Z,1011.14
2017-08-28T06:47:46.641Z,1011.14
2017-08-28T06:48:46.623Z,1011.13
2017-08-28T06:49:46.614Z,1011.16
2017-08-28T06:50:46.603Z,1011.16
2017-08-28T06:51:46.590Z,1011.19
2017-08-28T06:52:46.580Z,1011.2
2017-08-28T06:53:46.573Z,1011.18
2017-08-28T06:54:46.558Z,1011.19
2017-08-28T06:55:46.547Z,1011.14
2017-08-28T06:56:46.534Z,1011.17
2017-08-28T06:57:46.523Z,1011.2
2017-08-28T06:58:46.511Z,1011.17
2017-08-28T06:59:46.499Z,1011.18
2017-08-28T07:00:46.489Z,1011.19
2017-08-28T07:01:46.478Z,1011.18
2017-08-28T07:02:46.466Z,1011.2
2017-08-28T07:03:46.455Z,1011.16
2017-08-28T07:04:46.444Z,1011.2
2017-08-28T07:05:46.431Z,1011.21
2017-08-28T07:06:46.421Z,1011.25
2017-08-28T07:07:46.412Z,1011.25
2017-08-28T07:08:46.399Z,1011.27
2017-08-28T07:09:46.388Z,1011.3
2017-08-28T07:10:46.376Z,1011.37
2017-08-28T07:11:46.366Z,1011.33
2017-08-28T07:12:46.359Z,1011.33
2017-08-28T07:13:46.344Z,1011.39
2017-08-28T07:14:46.334Z,1011.39
2017-08-28T07:15:46.322Z,1011.4
2017-08-28T07:16:46.309Z,1011.42
2017-08-28T07:17:46.299Z,1011.44
2017-08-28T07:18:46.289Z,1011.42
2017-08-28T07:19:46.278Z,1011.39
2017-08-28T07:20:46.269Z,1011.37
2017-08-28T07:21:46.259Z,1011.4
2017-08-28T07:22:46.247Z,1011.37
2017-08-28T07:23:46.235Z,1011.38
2017-08-28T07:24:46.225Z,1011.36
2017-08-28T07:25:46.217Z,1011.38
2017-08-28T07:26:46.203Z,1011.37
2017-08-28T07:27:46.195Z,1011.41
2017-08-28T07:28:46.182Z,1011.38
2017-08-28T07:29:46.171Z,1011.41
2017-08-28T07:30:46.162Z,1011.4
2017-08-28T07:31:46.150Z,1011.42
2017-08-28T07:32:46.144Z,1011.41
2017-08-28T07:33:46.133Z,1011.49
2017-08-28T07:34:46.121Z,1011.48
2017-08-28T07:35:46.108Z,1011.48
2017-08-28T07:36:46.097Z,1011.48
2017-08-28T07:37:46.089Z,1011.49
2017-08-28T07:38:46.077Z,1011.47
2017-08-28T07:39:46.068Z,1011.51
2017-08-28T07:40:46.058Z,1011.52
2017-08-28T07:41:46.047Z,1011.53
2017-08-28T07:42:46.037Z,1011.54
2017-08-28T07:43:46.033Z,1011.56
2017-08-28T07:44:46.015Z,1011.51
2017-08-28T07:45:46.007Z,1011.58
2017-08-28T07:46:45.996Z,1011.59
2017-08-28T07:47:45.985Z,1011.6
2017-08-28T07:48:45.975Z,1011.61
2017-08-28T07:49:45.963Z,1011.57
2017-08-28T07:50:45.955Z,1011.59
2017-08-28T07:51:45.945Z,1011.59
2017-08-28T07:52:45.935Z,1011.58
2017-08-28T07:53:45.928Z,1011.56
2017-08-28T07:54:45.915Z,1011.54
2017-08-28T07:55:45.914Z,1011.55
2017-08-28T07:56:45.896Z,1011.53
2017-08-28T07:57:45.886Z,1011.53
2017-08-28T07:58:45.877Z,1011.53
2017-08-28T07:59:45.866Z,1011.55
2017-08-28T08:00:45.855Z,1011.51
2017-08-28T08:01:45.845Z,1011.54
2017-08-28T08:02:46.041Z,1011.49
2017-08-28T08:03:45.826Z,1011.47
2017-08-28T08:04:45.817Z,1011.49
2017-08-28T08:05:45.807Z,1011.5
2017-08-28T08:06:45.797Z,1011.52
2017-08-28T08:07:45.788Z,1011.47
2017-08-28T08:08:45.777Z,1011.53
2017-08-28T08:09:45.771Z,1011.51
2017-08-28T08:10:45.760Z,1011.48
2017-08-28T08:11:45.756Z,1011.51
2017-08-28T08:12:45.751Z,1011.5
2017-08-28T08:13:45.734Z,1011.53
2017-08-28T08:14:45.722Z,1011.52
2017-08-28T08:15:45.712Z,1011.55
2017-08-28T08:16:45.703Z,1011.56
2017-08-28T08:17:45.695Z,1011.61
2017-08-28T08:18:45.691Z,1011.61
2017-08-28T08:19:45.677Z,1011.59
2017-08-28T08:20:45.668Z,1011.61
2017-08-28T08:21:45.663Z,1011.58
2017-08-28T08:22:45.651Z,1011.62
2017-08-28T08:23:45.644Z,1011.63
2017-08-28T08:24:45.633Z,1011.62
2017-08-28T08:25:45.624Z,1011.61
2017-08-28T08:26:45.629Z,1011.59
2017-08-28T08:27:45.608Z,1011.59
2017-08-28T08:28:45.603Z,1011.59
2017-08-28T08:29:45.594Z,1011.57
2017-08-28T08:30:45.583Z,1011.54
2017-08-28T08:31:45.580Z,1011.56
2017-08-28T08:32:45.569Z,1011.56
2017-08-28T08:33:45.560Z,1011.53
2017-08-28T08:34:45.550Z,1011.52
2017-08-28T08:35:45.543Z,1011.58
2017-08-28T08:36:45.536Z,1011.53
2017-08-28T08:37:45.527Z,1011.58
2017-08-28T08:38:45.519Z,1011.55
2017-08-28T08:39:45.513Z,1011.55
2017-08-28T08:40:45.503Z,1011.59
2017-08-28T08:41:45.499Z,1011.57
2017-08-28T08:42:45.488Z,1011.58
2017-08-28T08:43:45.483Z,1011.63
2017-08-28T08:44:45.473Z,1011.63
2017-08-28T08:45:45.465Z,1011.62
2017-08-28T08:46:45.456Z,1011.61
2017-08-28T08:47:45.450Z,1011.65
2017-08-28T08:48:45.442Z,1011.61
2017-08-28T08:49:45.434Z,1011.63
2017-08-28T08:50:45.428Z,1011.6
2017-08-28T08:51:45.418Z,1011.61
2017-08-28T08:52:45.413Z,1011.59
2017-08-28T08:53:45.404Z,1011.63
2017-08-28T08:54:45.396Z,1011.61
2017-08-28T08:55:45.388Z,1011.63
2017-08-28T08:56:45.382Z,1011.58
2017-08-28T08:57:45.376Z,1011.61
2017-08-28T08:58:45.368Z,1011.6
2017-08-28T08:59:45.362Z,1011.62
2017-08-28T09:00:45.352Z,1011.62
2017-08-28T09:01:45.346Z,1011.57
2017-08-28T09:02:45.337Z,1011.61
2017-08-28T09:03:45.332Z,1011.59
2017-08-28T09:04:45.323Z,1011.54
2017-08-28T09:05:45.316Z,1011.54
2017-08-28T09:06:45.307Z,1011.53
2017-08-28T09:07:45.302Z,1011.57
2017-08-28T09:08:45.294Z,1011.57
2017-08-28T09:09:45.289Z,1011.58
2017-08-28T09:10:45.278Z,1011.57
2017-08-28T09:11:45.273Z,1011.57
2017-08-28T09:12:45.263Z,1011.58
2017-08-28T09:13:45.257Z,1011.56
2017-08-28T09:14:45.250Z,1011.59
2017-08-28T09:15:45.243Z,1011.6
2017-08-28T09:16:45.236Z,1011.61
2017-08-28T09:17:45.227Z,1011.61
2017-08-28T09:18:45.226Z,1011.61
2017-08-28T09:19:45.216Z,1011.6
2017-08-28T09:20:45.207Z,1011.62
2017-08-28T09:21:45.201Z,1011.64
2017-08-28T09:22:45.193Z,1011.64
2017-08-28T09:23:45.188Z,1011.63
2017-08-28T09:24:45.184Z,1011.62
2017-08-28T09:25:45.171Z,1011.62
2017-08-28T09:26:45.168Z,1011.59
2017-08-28T09:27:45.160Z,1011.59
2017-08-28T09:28:45.153Z,1011.58
2017-08-28T09:29:45.146Z,1011.59
2017-08-28T09:30:45.140Z,1011.6
2017-08-28T09:31:45.134Z,1011.59
2017-08-28T09:32:45.126Z,1011.61
2017-08-28T09:33:45.121Z,1011.59
2017-08-28T09:34:45.112Z,1011.61
2017-08-28T09:35:45.115Z,1011.61
2017-08-28T09:36:45.099Z,1011.6
2017-08-28T09:37:45.095Z,1011.62
2017-08-28T09:38:45.086Z,1011.64
2017-08-28T09:39:45.079Z,1011.67
2017-08-28T09:40:45.084Z,1011.63
2017-08-28T09:41:45.067Z,1011.67
2017-08-28T09:42:45.064Z,1011.68
2017-08-28T09:43:45.054Z,1011.65
2017-08-28T09:44:45.049Z,1011.67
2017-08-28T09:45:45.043Z,1011.67
2017-08-28T09:46:45.035Z,1011.65
2017-08-28T09:47:45.028Z,1011.67
2017-08-28T09:48:45.021Z,1011.67
2017-08-28T09:49:45.018Z,1011.67
2017-08-28T09:50:45.008Z,1011.67
2017-08-28T09:51:45.004Z,1011.69
2017-08-28T09:52:44.996Z,1011.67
2017-08-28T09:53:44.989Z,1011.68
2017-08-28T09:54:44.983Z,1011.66
2017-08-28T09:55:44.977Z,1011.66
2017-08-28T09:56:44.979Z,1011.67
2017-08-28T09:57:44.962Z,1011.68
2017-08-28T09:58:44.956Z,1011.66
2017-08-28T09:59:44.951Z,1011.66
2017-08-28T10:00:44.944Z,1011.63
2017-08-28T10:01:44.938Z,1011.62
2017-08-28T10:02:45.132Z,1011.64
2017-08-28T10:03:44.924Z,1011.59
2017-08-28T10:04:44.919Z,1011.59
2017-08-28T10:05:44.913Z,1011.54
2017-08-28T10:06:44.907Z,1011.55
2017-08-28T10:07:44.901Z,1011.59
2017-08-28T10:08:44.896Z,1011.59
2017-08-28T10:09:44.888Z,1011.61
2017-08-28T10:10:44.882Z,1011.54
2017-08-28T10:11:44.898Z,1011.56
2017-08-28T10:12:44.871Z,1011.52
2017-08-28T10:13:44.864Z,1011.52
2017-08-28T10:14:44.858Z,1011.54
2017-08-28T10:15:44.849Z,1011.55
2017-08-28T10:16:44.842Z,1011.55
2017-08-28T10:17:44.836Z,1011.53
2017-08-28T10:18:44.831Z,1011.54
2017-08-28T10:19:44.824Z,1011.53
2017-08-28T10:20:44.817Z,1011.49
2017-08-28T10:21:44.811Z,1011.46
2017-08-28T10:22:44.805Z,1011.49
2017-08-28T10:23:44.797Z,1011.48
2017-08-28T10:24:44.793Z,1011.45
2017-08-28T10:25:44.788Z,1011.44
2017-08-28T10:26:44.780Z,1011.45
2017-08-28T10:27:44.774Z,1011.45
2017-08-28T10:28:44.769Z,1011.47
2017-08-28T10:29:44.764Z,1011.44
2017-08-28T10:30:44.755Z,1011.41
2017-08-28T10:31:44.749Z,1011.36
2017-08-28T10:32:44.744Z,1011.32
2017-08-28T10:33:44.739Z,1011.37
2017-08-28T10:34:44.731Z,1011.37
2017-08-28T10:35:44.727Z,1011.4
2017-08-28T10:36:44.722Z,1011.38
2017-08-28T10:37:44.713Z,1011.41
2017-08-28T10:38:44.707Z,1011.4
2017-08-28T10:39:44.702Z,1011.38
2017-08-28T10:40:44.697Z,1011.42
2017-08-28T10:41:44.691Z,1011.38
2017-08-28T10:42:44.685Z,1011.39
2017-08-28T10:43:44.681Z,1011.39
2017-08-28T10:44:44.674Z,1011.4
2017-08-28T10:45:44.667Z,1011.39
2017-08-28T10:46:44.663Z,1011.41
2017-08-28T10:47:44.658Z,1011.4
2017-08-28T10:48:44.652Z,1011.33
2017-08-28T10:49:44.646Z,1011.35
2017-08-28T10:50:44.640Z,1011.29
2017-08-28T10:51:44.635Z,1011.27
2017-08-28T10:52:44.627Z,1011.26
2017-08-28T10:53:44.621Z,1011.27
2017-08-28T10:54:44.617Z,1011.28
2017-08-28T10:55:44.612Z,1011.25
2017-08-28T10:56:44.606Z,1011.31
2017-08-28T10:57:44.602Z,1011.28
2017-08-28T10:58:44.622Z,1011.26
2017-08-28T10:59:44.590Z,1011.26
2017-08-28T11:00:44.584Z,1011.23
2017-08-28T11:01:44.580Z,1011.24
2017-08-28T11:02:44.575Z,1011.25
2017-08-28T11:03:44.571Z,1011.23
2017-08-28T11:04:44.568Z,1011.24
2017-08-28T11:05:44.561Z,1011.21
2017-08-28T11:06:44.558Z,1011.23
2017-08-28T11:07:44.554Z,1011.23
2017-08-28T11:08:44.550Z,1011.27
2017-08-28T11:09:44.547Z,1011.11
2017-08-28T11:10:44.543Z,1011.13
2017-08-28T11:11:44.541Z,1011.14
2017-08-28T11:12:44.538Z,1011.2
2017-08-28T11:13:44.538Z,1011.3
2017-08-28T11:14:44.535Z,1011.26
2017-08-28T11:15:44.534Z,1011.25
2017-08-28T11:16:44.534Z,1011.23
2017-08-28T11:17:44.529Z,1011.26
2017-08-28T11:18:44.529Z,1011.28
2017-08-28T11:19:44.525Z,1011.28
2017-08-28T11:20:44.527Z,1011.27
2017-08-28T11:21:44.525Z,1011.32
2017-08-28T11:22:44.526Z,1011.32
2017-08-28T11:23:44.524Z,1011.31
2017-08-28T11:24:44.524Z,1011.32
2017-08-28T11:25:44.525Z,1011.3
2017-08-28T11:26:44.525Z,1011.29
2017-08-28T11:27:44.528Z,1011.21
2017-08-28T11:28:44.530Z,1011.26
2017-08-28T11:29:44.532Z,1011.26
2017-08-28T11:30:44.534Z,1011.25
2017-08-28T11:31:44.538Z,1011.25
2017-08-28T11:32:44.539Z,1011.22
2017-08-28T11:33:44.544Z,1011.22
2017-08-28T11:34:44.549Z,1011.27
2017-08-28T11:35:44.553Z,1011.27
2017-08-28T11:36:44.555Z,1011.26
2017-08-28T11:37:44.560Z,1011.28
2017-08-28T11:38:44.563Z,1011.29
2017-08-28T11:39:44.570Z,1011.25
2017-08-28T11:40:44.574Z,1011.27
2017-08-28T11:41:44.581Z,1011.25
2017-08-28T11:42:44.584Z,1011.25
2017-08-28T11:43:44.587Z,1011.25
2017-08-28T11:44:44.596Z,1011.25
2017-08-28T11:45:44.597Z,1011.22
2017-08-28T11:46:44.603Z,1011.28
2017-08-28T11:47:44.609Z,1011.28
2017-08-28T11:48:44.615Z,1011.29
2017-08-28T11:49:44.620Z,1011.26
2017-08-28T11:50:44.626Z,1011.25
2017-08-28T11:51:44.631Z,1011.28
2017-08-28T11:52:44.635Z,1011.27
2017-08-28T11:53:44.644Z,1011.27
2017-08-28T11:54:44.649Z,1011.24
2017-08-28T11:55:44.653Z,1011.29
2017-08-28T11:56:44.658Z,1011.26
2017-08-28T11:57:44.664Z,1011.27
2017-08-28T11:58:44.669Z,1011.24
2017-08-28T11:59:44.681Z,1011.27
2017-08-28T12:00:44.688Z,1011.28
2017-08-28T12:01:44.688Z,1011.27
2017-08-28T12:02:44.896Z,1011.22
2017-08-28T12:03:44.699Z,1011.24
2017-08-28T12:04:44.705Z,1011.26
2017-08-28T12:05:44.713Z,1011.27
2017-08-28T12:06:44.716Z,1011.24
2017-08-28T12:07:44.740Z,1011.22
2017-08-28T12:08:44.728Z,1011.26